createdAt,value
2022-09-28T00:01:20.880Z,4.30
2022-09-28T00:03:50.102Z,3.70
2022-09-28T00:06:20.760Z,4.32
2022-09-28T00:08:50.293Z,3.78
2022-09-28T00:11:20.778Z,4.13
2022-09-28T00:13:52.880Z,3.70
2022-09-28T00:16:24.240Z,3.00
2022-09-28T00:18:52.411Z,4.10
2022-09-28T00:21:22.350Z,4.30
2022-09-28T00:24:15.003Z,4.00
2022-09-28T00:26:50.614Z,4.57
2022-09-28T00:29:22.485Z,4.53
2022-09-28T00:31:52.705Z,4.53
2022-09-28T00:34:20.326Z,3.15
2022-09-28T00:36:48.372Z,4.20
2022-09-28T00:39:16.874Z,4.10
2022-09-28T00:41:46.554Z,4.10
2022-09-28T00:44:25.631Z,4.53
2022-09-28T00:46:52.771Z,4.28
2022-09-28T00:49:25.489Z,3.88
2022-09-28T00:51:52.581Z,4.20
2022-09-28T00:54:19.936Z,4.30
2022-09-28T00:56:48.816Z,4.40
2022-09-28T00:59:16.681Z,4.80
2022-09-28T01:01:44.289Z,4.68
2022-09-28T01:04:11.528Z,4.57
2022-09-28T01:06:39.306Z,3.65
2022-09-28T01:09:10.590Z,5.32
2022-09-28T01:11:39.061Z,3.90
2022-09-28T01:14:11.513Z,4.00
2022-09-28T01:17:08.752Z,3.78
2022-09-28T01:20:52.674Z,4.70
2022-09-28T01:23:53.394Z,3.92
2022-09-28T01:26:29.339Z,3.50
2022-09-28T01:29:06.694Z,3.60
2022-09-28T01:31:37.231Z,3.92
2022-09-28T01:34:13.500Z,3.80
2022-09-28T01:36:50.770Z,3.15
2022-09-28T01:39:38.948Z,3.15
2022-09-28T01:42:14.965Z,3.60
2022-09-28T01:44:46.062Z,2.97
2022-09-28T01:47:17.286Z,3.17
2022-09-28T01:49:50.858Z,3.75
2022-09-28T01:52:30.297Z,3.17
2022-09-28T01:55:13.291Z,3.28
2022-09-28T01:58:04.890Z,2.97
2022-09-28T02:00:34.834Z,2.95
2022-09-28T02:03:09.123Z,3.00
2022-09-28T02:05:51.333Z,3.10
2022-09-28T02:08:22.310Z,2.95
2022-09-28T02:11:17.326Z,3.03
2022-09-28T02:13:48.896Z,3.00
2022-09-28T02:16:39.415Z,2.72
2022-09-28T02:19:22.562Z,2.35
2022-09-28T02:22:28.812Z,2.53
2022-09-28T02:25:00.259Z,2.53
2022-09-28T02:27:55.113Z,2.40
2022-09-28T02:30:22.916Z,2.58
2022-09-28T02:32:53.726Z,2.95
2022-09-28T02:35:22.206Z,2.60
2022-09-28T02:37:50.127Z,2.58
2022-09-28T02:40:22.154Z,2.70
2022-09-28T02:46:08.718Z,2.40
2022-09-28T02:49:30.278Z,2.43
2022-09-28T02:52:08.938Z,2.97
2022-09-28T02:55:08.249Z,2.53
2022-09-28T02:57:38.942Z,2.47
2022-09-28T03:00:12.703Z,1.65
2022-09-28T03:02:54.560Z,2.42
2022-09-28T03:05:52.768Z,2.38
2022-09-28T03:08:24.761Z,2.53
2022-09-28T03:11:07.796Z,2.38
2022-09-28T03:13:35.727Z,1.92
2022-09-28T03:16:07.863Z,2.08
2022-09-28T03:18:35.755Z,2.25
2022-09-28T03:21:04.866Z,2.05
2022-09-28T03:23:32.175Z,2.40
2022-09-28T03:26:01.741Z,2.22
2022-09-28T03:28:29.784Z,2.13
2022-09-28T03:30:58.068Z,2.08
2022-09-28T03:33:25.929Z,2.40
2022-09-28T03:35:53.487Z,2.03
2022-09-28T03:38:21.324Z,2.25
2022-09-28T03:40:59.912Z,2.30
2022-09-28T03:43:31.236Z,1.92
2022-09-28T03:46:01.864Z,2.65
2022-09-28T03:48:36.189Z,2.28
2022-09-28T03:51:07.078Z,2.47
2022-09-28T03:53:34.240Z,2.55
2022-09-28T03:56:07.724Z,2.30
2022-09-28T03:58:35.477Z,2.40
2022-09-28T04:01:06.229Z,2.45
2022-09-28T04:03:34.133Z,2.47
2022-09-28T04:06:01.492Z,2.20
2022-09-28T04:08:28.942Z,2.30
2022-09-28T04:10:58.654Z,2.70
2022-09-28T04:13:27.984Z,2.40
2022-09-28T04:15:57.136Z,2.80
2022-09-28T04:18:25.884Z,2.40
2022-09-28T04:21:07.186Z,2.50
2022-09-28T04:23:40.148Z,2.47
2022-09-28T04:26:16.785Z,3.20
2022-09-28T04:29:07.003Z,2.40
2022-09-28T04:31:49.870Z,2.85
2022-09-28T04:34:20.567Z,3.08
2022-09-28T04:36:48.734Z,3.17
2022-09-28T04:39:20.150Z,3.25
2022-09-28T04:41:51.317Z,3.65
2022-09-28T04:44:24.606Z,3.40
2022-09-28T04:46:59.721Z,3.80
2022-09-28T04:49:30.220Z,3.60
2022-09-28T04:52:02.375Z,3.95
2022-09-28T04:54:29.578Z,4.20
2022-09-28T04:56:58.327Z,4.28
2022-09-28T04:59:26.132Z,4.70
2022-09-28T05:01:54.301Z,4.60
2022-09-28T05:04:40.082Z,4.40
2022-09-28T05:07:26.953Z,4.60
2022-09-28T05:09:56.066Z,4.70
2022-09-28T05:12:24.075Z,5.05
2022-09-28T05:14:51.250Z,4.70
2022-09-28T05:17:18.589Z,4.68
2022-09-28T05:19:59.257Z,4.72
2022-09-28T05:22:26.514Z,5.22
2022-09-28T05:24:55.301Z,4.72
2022-09-28T05:27:24.323Z,4.93
2022-09-28T05:30:00.561Z,5.00
2022-09-28T05:32:31.006Z,5.00
2022-09-28T05:35:06.439Z,5.15
2022-09-28T05:37:41.642Z,4.82
2022-09-28T05:40:09.335Z,4.40
2022-09-28T05:42:38.028Z,4.82
2022-09-28T05:45:06.507Z,4.50
2022-09-28T05:47:38.335Z,5.00
2022-09-28T05:50:08.254Z,4.40
2022-09-28T05:52:35.616Z,4.78
2022-09-28T05:55:05.571Z,5.25
2022-09-28T05:57:33.509Z,4.45
2022-09-28T06:00:01.267Z,4.53
2022-09-28T06:02:28.820Z,5.10
2022-09-28T06:04:56.181Z,5.18
2022-09-28T06:07:23.974Z,5.07
2022-09-28T06:09:51.111Z,5.15
2022-09-28T06:12:23.268Z,5.60
2022-09-28T06:14:55.551Z,5.38
2022-09-28T06:17:23.638Z,5.30
2022-09-28T06:20:11.611Z,6.10
2022-09-28T06:22:57.108Z,5.22
2022-09-28T06:25:26.037Z,5.93
2022-09-28T06:28:04.024Z,5.45
2022-09-28T06:30:33.443Z,4.95
2022-09-28T06:33:02.277Z,5.38
2022-09-28T06:35:32.014Z,4.75
2022-09-28T06:38:00.398Z,4.85
2022-09-28T06:40:28.753Z,4.43
2022-09-28T06:43:02.648Z,4.43
2022-09-28T06:45:53.516Z,5.00
2022-09-28T06:48:39.161Z,4.40
2022-09-28T06:51:08.886Z,5.40
2022-09-28T06:53:57.239Z,5.18
2022-09-28T06:56:59.629Z,4.85
2022-09-28T06:59:26.789Z,5.15
2022-09-28T07:01:54.691Z,4.85
2022-09-28T07:04:52.228Z,4.85
2022-09-28T07:07:34.291Z,4.68
2022-09-28T07:10:19.973Z,3.95
2022-09-28T07:13:33.510Z,4.45
2022-09-28T07:16:06.339Z,3.72
2022-09-28T07:18:33.651Z,4.10
2022-09-28T07:21:20.415Z,4.35
2022-09-28T07:23:54.287Z,4.40
2022-09-28T07:26:25.743Z,3.60
2022-09-28T07:28:59.006Z,4.20
2022-09-28T07:31:43.670Z,4.25
2022-09-28T07:34:41.381Z,3.85
2022-09-28T07:37:13.559Z,3.80
2022-09-28T07:40:00.050Z,4.93
2022-09-28T07:42:30.839Z,4.72
2022-09-28T07:44:58.668Z,4.82
2022-09-28T07:47:32.309Z,4.38
2022-09-28T07:50:33.475Z,5.38
2022-09-28T07:53:15.153Z,6.15
2022-09-28T07:56:19.515Z,5.13
2022-09-28T07:59:06.911Z,5.90
2022-09-28T08:01:40.326Z,5.68
2022-09-28T08:04:10.974Z,4.95
2022-09-28T08:06:40.729Z,6.22
2022-09-28T08:09:10.044Z,5.20
2022-09-28T08:11:55.643Z,6.07
2022-09-28T08:14:44.676Z,5.55
2022-09-28T08:17:48.517Z,5.80
2022-09-28T08:20:36.435Z,6.05
2022-09-28T08:23:05.943Z,6.03
2022-09-28T08:25:34.761Z,5.78
2022-09-28T08:28:04.167Z,6.43
2022-09-28T08:30:34.562Z,5.93
2022-09-28T08:33:30.887Z,6.10
2022-09-28T08:36:16.715Z,6.57
2022-09-28T08:39:04.139Z,6.13
2022-09-28T08:41:52.960Z,6.53
2022-09-28T08:44:44.718Z,6.30
2022-09-28T08:47:46.145Z,6.50
2022-09-28T08:50:42.449Z,6.53
2022-09-28T08:53:36.114Z,6.30
2022-09-28T08:56:35.212Z,6.97
2022-09-28T08:59:05.726Z,6.43
2022-09-28T09:01:39.061Z,6.75
2022-09-28T09:04:10.433Z,6.18
2022-09-28T09:07:13.276Z,6.38
2022-09-28T09:10:09.467Z,6.53
2022-09-28T09:12:43.728Z,6.75
2022-09-28T09:15:17.519Z,6.15
2022-09-28T09:17:57.004Z,6.15
2022-09-28T09:20:52.966Z,6.78
2022-09-28T09:23:56.106Z,6.50
2022-09-28T09:26:41.379Z,6.25
2022-09-28T09:29:25.052Z,6.32
2022-09-28T09:32:17.655Z,6.53
2022-09-28T09:35:01.096Z,6.15
2022-09-28T09:37:49.370Z,5.97
2022-09-28T09:40:50.472Z,6.53
2022-09-28T09:44:19.536Z,7.03
2022-09-28T09:47:17.946Z,7.15
2022-09-28T09:50:06.795Z,6.90
2022-09-28T09:53:03.091Z,7.88
2022-09-28T09:55:36.630Z,7.50
2022-09-28T09:58:27.994Z,7.28
2022-09-28T10:01:13.252Z,7.05
2022-09-28T10:04:39.205Z,8.30
2022-09-28T10:07:22.265Z,7.22
2022-09-28T10:09:52.029Z,7.85
2022-09-28T10:12:29.401Z,7.38
2022-09-28T10:14:59.782Z,7.90
2022-09-28T10:17:28.302Z,8.95
2022-09-28T10:20:16.258Z,9.45
2022-09-28T10:23:03.793Z,9.40
2022-09-28T10:25:33.818Z,10.23
2022-09-28T10:28:03.173Z,9.55
2022-09-28T10:30:42.116Z,9.30
2022-09-28T10:33:29.680Z,9.48
2022-09-28T10:35:58.983Z,9.32
2022-09-28T10:38:26.907Z,9.40
2022-09-28T10:41:12.283Z,8.77
2022-09-28T10:44:06.864Z,7.57
2022-09-28T10:47:01.114Z,7.82
2022-09-28T10:49:47.303Z,7.68
2022-09-28T10:52:32.187Z,7.03
2022-09-28T10:57:33.310Z,6.38
2022-09-28T11:00:07.602Z,6.82
2022-09-28T11:02:48.993Z,6.88
2022-09-28T11:05:24.357Z,6.53
2022-09-28T11:07:56.032Z,6.43
2022-09-28T11:10:33.651Z,6.50
2022-09-28T11:13:14.375Z,7.03
2022-09-28T11:15:46.612Z,6.40
2022-09-28T11:18:32.636Z,7.18
2022-09-28T11:21:18.329Z,6.38
2022-09-28T11:24:19.106Z,6.75
2022-09-28T11:26:50.696Z,6.35
2022-09-28T11:29:41.940Z,7.75
2022-09-28T11:32:22.844Z,6.78
2022-09-28T11:35:32.275Z,6.63
2022-09-28T11:38:17.865Z,7.10
2022-09-28T11:41:41.126Z,7.05
2022-09-28T11:44:36.490Z,6.07
2022-09-28T11:47:34.525Z,6.60
2022-09-28T11:50:29.710Z,6.80
2022-09-28T11:53:19.903Z,7.05
2022-09-28T11:56:07.907Z,6.32
2022-09-28T11:58:42.235Z,6.97
2022-09-28T12:01:31.365Z,6.53
2022-09-28T12:04:33.776Z,6.65
2022-09-28T12:07:12.616Z,6.43
2022-09-28T12:09:52.498Z,6.50
2022-09-28T12:12:28.590Z,5.97
2022-09-28T12:15:01.371Z,6.20
2022-09-28T12:17:36.702Z,6.78
2022-09-28T12:20:16.558Z,6.13
2022-09-28T12:22:54.966Z,5.85
2022-09-28T12:25:24.248Z,6.07
2022-09-28T12:27:59.305Z,5.80
2022-09-28T12:30:31.369Z,5.57
2022-09-28T12:33:01.545Z,5.65
2022-09-28T12:36:03.976Z,5.97
2022-09-28T12:38:33.991Z,5.50
2022-09-28T12:41:36.564Z,5.75
2022-09-28T12:44:24.587Z,5.37
2022-09-28T12:47:38.675Z,5.28
2022-09-28T12:50:38.579Z,5.68
2022-09-28T12:53:23.672Z,4.95
2022-09-28T12:56:16.829Z,5.15
2022-09-28T12:59:12.378Z,4.90
2022-09-28T13:01:45.569Z,5.07
2022-09-28T13:04:15.329Z,5.30
2022-09-28T13:07:09.977Z,5.20
2022-09-28T13:10:01.635Z,5.18
2022-09-28T13:12:59.537Z,5.15
2022-09-28T13:15:58.001Z,5.03
2022-09-28T13:18:34.967Z,4.80
2022-09-28T13:21:33.282Z,4.90
2022-09-28T13:24:14.852Z,5.10
2022-09-28T13:26:55.726Z,5.25
2022-09-28T13:29:27.985Z,5.10
2022-09-28T13:31:58.404Z,4.63
2022-09-28T13:34:29.106Z,5.25
2022-09-28T13:37:25.764Z,4.53
2022-09-28T13:39:59.069Z,4.32
2022-09-28T13:43:04.871Z,5.00
2022-09-28T13:45:54.931Z,5.43
2022-09-28T13:48:28.496Z,4.30
2022-09-28T13:51:42.165Z,4.78
2022-09-28T13:54:15.831Z,4.45
2022-09-28T13:56:43.094Z,4.85
2022-09-28T13:59:22.177Z,5.15
2022-09-28T14:02:06.807Z,4.50
2022-09-28T14:05:20.515Z,4.82
2022-09-28T14:08:09.153Z,4.32
2022-09-28T14:10:49.032Z,4.47
2022-09-28T14:13:42.006Z,4.80
2022-09-28T14:16:18.252Z,5.00
2022-09-28T14:18:55.106Z,4.93
2022-09-28T14:22:04.338Z,4.70
2022-09-28T14:24:55.633Z,4.57
2022-09-28T14:27:32.644Z,4.65
2022-09-28T14:30:12.028Z,4.45
2022-09-28T14:32:50.762Z,4.43
2022-09-28T14:35:34.370Z,4.50
2022-09-28T14:38:44.367Z,4.30
2022-09-28T14:41:19.734Z,4.57
2022-09-28T14:43:46.703Z,3.78
2022-09-28T14:46:20.183Z,4.28
2022-09-28T14:49:04.057Z,4.18
2022-09-28T14:51:31.192Z,4.00
2022-09-28T14:54:13.391Z,4.20
2022-09-28T14:56:43.769Z,4.63
2022-09-28T14:59:17.510Z,4.28
2022-09-28T15:01:57.899Z,4.28
2022-09-28T15:04:29.129Z,4.00
2022-09-28T15:06:58.221Z,3.92
2022-09-28T15:09:35.526Z,3.20
2022-09-28T15:12:15.226Z,4.63
2022-09-28T15:15:04.002Z,3.60
2022-09-28T15:17:41.770Z,4.00
2022-09-28T15:20:32.519Z,3.90
2022-09-28T15:23:00.469Z,4.43
2022-09-28T15:25:29.922Z,4.25
2022-09-28T15:28:06.661Z,3.70
2022-09-28T15:30:35.263Z,3.60
2022-09-28T15:33:23.446Z,4.07
2022-09-28T15:36:03.079Z,4.18
2022-09-28T15:38:32.524Z,3.70
2022-09-28T15:41:04.675Z,4.57
2022-09-28T15:43:34.063Z,4.03
2022-09-28T15:46:21.983Z,3.90
2022-09-28T15:48:55.590Z,4.10
2022-09-28T15:51:26.028Z,3.53
2022-09-28T15:54:04.292Z,3.95
2022-09-28T15:56:31.751Z,4.30
2022-09-28T15:59:15.225Z,3.65
2022-09-28T16:01:45.620Z,4.35
2022-09-28T16:04:50.600Z,3.60
2022-09-28T16:07:28.952Z,4.05
2022-09-28T16:09:57.237Z,3.60
2022-09-28T16:12:33.431Z,4.28
2022-09-28T16:15:20.712Z,4.20
2022-09-28T16:18:02.724Z,3.88
2022-09-28T16:20:45.256Z,4.25
2022-09-28T16:23:21.266Z,4.40
2022-09-28T16:26:02.477Z,4.15
2022-09-28T16:28:34.895Z,4.00
2022-09-28T16:31:07.730Z,3.97
2022-09-28T16:36:19.852Z,4.07
2022-09-28T16:38:47.675Z,3.95
2022-09-28T16:41:27.183Z,4.03
2022-09-28T16:43:59.405Z,3.95
2022-09-28T16:46:37.559Z,4.05
2022-09-28T16:49:06.939Z,4.47
2022-09-28T16:51:34.175Z,3.53
2022-09-28T16:54:34.023Z,3.88
2022-09-28T16:57:02.630Z,3.80
2022-09-28T16:59:30.286Z,3.70
2022-09-28T17:01:58.395Z,3.58
2022-09-28T17:04:26.504Z,3.67
2022-09-28T17:06:55.497Z,3.50
2022-09-28T17:09:23.378Z,3.72
2022-09-28T17:11:56.239Z,3.50
2022-09-28T17:17:13.744Z,2.88
2022-09-28T17:19:41.771Z,3.47
2022-09-28T17:22:10.098Z,3.35
2022-09-28T17:24:37.736Z,3.17
2022-09-28T17:27:09.272Z,3.45
2022-09-28T17:29:36.399Z,2.72
2022-09-28T17:32:16.631Z,3.00
2022-09-28T17:35:39.757Z,2.78
2022-09-28T17:38:14.508Z,2.88
2022-09-28T17:44:25.347Z,2.88
2022-09-28T17:46:56.002Z,3.70
2022-09-28T17:49:26.061Z,3.33
2022-09-28T17:51:53.312Z,3.30
2022-09-28T17:54:22.634Z,3.60
2022-09-28T17:56:49.967Z,4.03
2022-09-28T17:59:19.266Z,4.13
2022-09-28T18:01:48.375Z,4.10
2022-09-28T18:04:39.625Z,4.35
2022-09-28T18:07:03.674Z,5.03
2022-09-28T18:09:30.822Z,5.10
2022-09-28T18:12:04.302Z,5.10
2022-09-28T18:14:31.468Z,4.90
2022-09-28T18:17:06.715Z,5.40
2022-09-28T18:19:33.822Z,5.85
2022-09-28T18:22:01.642Z,4.90
2022-09-28T18:24:29.270Z,5.68
2022-09-28T18:27:05.764Z,5.50
2022-09-28T18:29:41.057Z,5.40
2022-09-28T18:32:08.290Z,5.40
2022-09-28T18:34:37.280Z,4.97
2022-09-28T18:37:05.767Z,5.38
2022-09-28T18:39:36.202Z,5.40
2022-09-28T18:42:03.633Z,5.13
2022-09-28T18:44:31.603Z,5.18
2022-09-28T18:47:01.111Z,5.30
2022-09-28T18:49:31.222Z,5.32
2022-09-28T18:51:58.464Z,4.97
2022-09-28T18:54:27.289Z,5.38
2022-09-28T18:56:56.670Z,5.35
2022-09-28T18:59:24.029Z,5.45
2022-09-28T19:01:53.004Z,5.70
2022-09-28T19:04:20.682Z,6.95
2022-09-28T19:06:51.898Z,5.78
2022-09-28T19:09:21.154Z,5.50
2022-09-28T19:11:48.899Z,5.55
2022-09-28T19:14:16.927Z,5.22
2022-09-28T19:16:49.589Z,5.20
2022-09-28T19:19:19.204Z,6.00
2022-09-28T19:21:47.857Z,5.45
2022-09-28T19:24:17.199Z,5.53
2022-09-28T19:26:46.623Z,5.65
2022-09-28T19:29:14.782Z,5.93
2022-09-28T19:31:43.590Z,5.55
2022-09-28T19:34:13.445Z,5.35
2022-09-28T19:36:41.863Z,5.82
2022-09-28T19:39:13.281Z,5.15
2022-09-28T19:42:00.743Z,5.43
2022-09-28T19:44:29.809Z,5.00
2022-09-28T19:47:07.156Z,5.00
2022-09-28T19:49:43.403Z,4.85
2022-09-28T19:52:16.361Z,5.00
2022-09-28T19:54:57.961Z,5.32
2022-09-28T19:57:27.859Z,5.40
2022-09-28T20:00:00.916Z,5.00
2022-09-28T20:02:33.823Z,5.18
2022-09-28T20:05:01.167Z,4.72
2022-09-28T20:07:32.973Z,5.60
2022-09-28T20:10:00.234Z,5.47
2022-09-28T20:12:27.242Z,5.00
2022-09-28T20:14:54.423Z,5.60
2022-09-28T20:17:21.911Z,5.38
2022-09-28T20:19:51.247Z,5.57
2022-09-28T20:22:18.757Z,4.82
2022-09-28T20:24:45.889Z,5.05
2022-09-28T20:27:12.897Z,4.75
2022-09-28T20:29:39.951Z,5.20
2022-09-28T20:32:07.010Z,4.75
2022-09-28T20:34:34.133Z,4.95
2022-09-28T20:37:01.679Z,4.20
2022-09-28T20:39:28.810Z,3.75
2022-09-28T20:41:56.369Z,4.05
2022-09-28T20:44:23.417Z,4.00
2022-09-28T20:46:51.817Z,3.78
2022-09-28T20:49:19.018Z,4.13
2022-09-28T20:51:46.148Z,3.60
2022-09-28T20:54:13.172Z,4.18
2022-09-28T20:56:40.242Z,4.38
2022-09-28T20:59:09.568Z,4.15
2022-09-28T21:01:37.145Z,4.22
2022-09-28T21:04:07.461Z,4.63
2022-09-28T21:06:37.135Z,4.55
2022-09-28T21:09:06.653Z,4.90
2022-09-28T21:11:35.763Z,4.80
2022-09-28T21:14:05.848Z,4.95
2022-09-28T21:16:34.616Z,4.35
2022-09-28T21:19:01.734Z,5.32
2022-09-28T21:21:28.930Z,4.03
2022-09-28T21:23:57.553Z,4.60
2022-09-28T21:26:27.098Z,4.35
2022-09-28T21:28:58.587Z,4.45
2022-09-28T21:31:29.400Z,4.35
2022-09-28T21:33:57.784Z,3.65
2022-09-28T21:36:25.747Z,4.18
2022-09-28T21:38:54.321Z,4.40
2022-09-28T21:41:21.300Z,4.45
2022-09-28T21:43:48.296Z,5.35
2022-09-28T21:46:15.412Z,5.70
2022-09-28T21:48:42.429Z,6.35
2022-09-28T21:51:14.167Z,6.65
2022-09-28T21:53:41.373Z,5.88
2022-09-28T21:56:10.918Z,6.55
2022-09-28T21:58:38.565Z,5.82
2022-09-28T22:01:08.647Z,5.85
2022-09-28T22:03:36.694Z,6.10
2022-09-28T22:06:05.001Z,6.30
2022-09-28T22:08:33.179Z,6.20
2022-09-28T22:11:05.803Z,6.80
2022-09-28T22:13:35.754Z,6.18
2022-09-28T22:16:03.166Z,6.00
2022-09-28T22:18:31.936Z,6.28
2022-09-28T22:21:00.865Z,6.65
2022-09-28T22:23:29.258Z,6.53
2022-09-28T22:26:09.873Z,6.40
2022-09-28T22:28:37.574Z,6.20
2022-09-28T22:31:05.183Z,5.80
2022-09-28T22:33:32.311Z,6.20
2022-09-28T22:36:04.838Z,5.43
2022-09-28T22:38:42.293Z,5.85
2022-09-28T22:41:09.802Z,5.30
2022-09-28T22:43:38.164Z,5.57
2022-09-28T22:46:08.205Z,6.47
2022-09-28T22:48:35.575Z,6.07
2022-09-28T22:51:06.310Z,6.82
2022-09-28T22:53:34.448Z,7.05
2022-09-28T22:56:05.680Z,6.20
2022-09-28T22:58:34.685Z,6.65
2022-09-28T23:01:28.224Z,5.80
2022-09-28T23:03:56.335Z,6.28
2022-09-28T23:06:26.177Z,7.28
2022-09-28T23:08:53.447Z,6.50
2022-09-28T23:11:21.049Z,6.00
2022-09-28T23:13:52.952Z,5.80
2022-09-28T23:16:25.565Z,5.40
2022-09-28T23:18:54.837Z,6.40
2022-09-28T23:21:24.591Z,5.82
2022-09-28T23:23:54.532Z,5.50
2022-09-28T23:26:25.059Z,5.57
2022-09-28T23:28:53.005Z,5.50
2022-09-28T23:31:25.338Z,5.03
2022-09-28T23:34:00.271Z,5.25
2022-09-28T23:36:27.788Z,4.72
2022-09-28T23:38:54.726Z,5.55
2022-09-28T23:41:21.794Z,4.90
2022-09-28T23:43:48.911Z,5.30
2022-09-28T23:46:20.533Z,5.70
2022-09-28T23:48:48.907Z,6.32
2022-09-28T23:51:16.066Z,6.03
2022-09-28T23:53:43.727Z,6.03
2022-09-28T23:56:11.018Z,6.35
2022-09-28T23:58:38.063Z,6.13
